sensor_id;sensor_type;location;lat;lon;timestamp;pressure;altitude;pressure_sealevel;temperature;humidity
46638;BME280;32365;46.938;7.390;2023-02-13T08:30:12;97139.84;;;0.10;96.88
46638;BME280;32365;46.938;7.390;2023-02-13T08:32:39;97142.84;;;0.26;95.79
46638;BME280;32365;46.938;7.390;2023-02-13T08:35:06;97143.84;;;0.79;90.19
46638;BME280;32365;46.938;7.390;2023-02-13T08:37:32;97137.06;;;1.53;88.62
46638;BME280;32365;46.938;7.390;2023-02-13T08:39:59;97137.38;;;1.38;87.40
46638;BME280;32365;46.938;7.390;2023-02-13T08:42:25;97130.66;;;1.99;84.94
46638;BME280;32365;46.938;7.390;2023-02-13T08:44:52;97141.72;;;1.69;83.74
46638;BME280;32365;46.938;7.390;2023-02-13T08:47:19;97129.28;;;1.95;85.31
46638;BME280;32365;46.938;7.390;2023-02-13T08:49:46;97135.47;;;2.53;82.18
46638;BME280;32365;46.938;7.390;2023-02-13T08:52:12;97136.56;;;2.70;81.67
46638;BME280;32365;46.938;7.390;2023-02-13T08:54:39;97140.94;;;2.29;81.10
46638;BME280;32365;46.938;7.390;2023-02-13T08:57:05;97132.03;;;2.04;81.75
46638;BME280;32365;46.938;7.390;2023-02-13T08:59:32;97136.25;;;1.52;84.06
46638;BME280;32365;46.938;7.390;2023-02-13T09:01:59;97135.41;;;1.21;85.75
46638;BME280;32365;46.938;7.390;2023-02-13T09:04:27;97139.63;;;1.11;87.80
46638;BME280;32365;46.938;7.390;2023-02-13T09:06:54;97142.91;;;0.80;89.38
46638;BME280;32365;46.938;7.390;2023-02-13T09:09:21;97142.09;;;0.47;91.55
46638;BME280;32365;46.938;7.390;2023-02-13T09:11:48;97145.50;;;0.69;90.12
46638;BME280;32365;46.938;7.390;2023-02-13T09:14:15;97140.75;;;0.64;87.89
46638;BME280;32365;46.938;7.390;2023-02-13T09:16:42;97144.25;;;0.63;90.57
46638;BME280;32365;46.938;7.390;2023-02-13T09:19:08;97140.34;;;0.80;90.03
46638;BME280;32365;46.938;7.390;2023-02-13T09:21:36;97140.63;;;0.98;89.32
46638;BME280;32365;46.938;7.390;2023-02-13T09:24:06;97141.81;;;0.94;89.61
46638;BME280;32365;46.938;7.390;2023-02-13T09:26:32;97143.06;;;1.21;88.84
46638;BME280;32365;46.938;7.390;2023-02-13T09:28:59;97144.00;;;1.20;86.80
46638;BME280;32365;46.938;7.390;2023-02-13T09:31:25;97143.09;;;1.52;88.11
46638;BME280;32365;46.938;7.390;2023-02-13T09:33:52;97143.28;;;2.01;85.95
46638;BME280;32365;46.938;7.390;2023-02-13T09:36:20;97143.50;;;2.29;83.13
46638;BME280;32365;46.938;7.390;2023-02-13T09:38:53;97151.28;;;2.18;84.81
46638;BME280;32365;46.938;7.390;2023-02-13T09:41:22;97156.41;;;2.18;83.61
46638;BME280;32365;46.938;7.390;2023-02-13T09:43:52;97147.78;;;2.19;84.54
46638;BME280;32365;46.938;7.390;2023-02-13T09:46:22;97144.84;;;2.23;84.64
46638;BME280;32365;46.938;7.390;2023-02-13T09:48:51;97150.78;;;2.34;84.32
46638;BME280;32365;46.938;7.390;2023-02-13T09:51:20;97153.31;;;2.24;84.64
46638;BME280;32365;46.938;7.390;2023-02-13T09:53:52;97152.44;;;1.94;86.22
46638;BME280;32365;46.938;7.390;2023-02-13T09:56:22;97156.78;;;2.13;85.44
46638;BME280;32365;46.938;7.390;2023-02-13T09:58:58;97146.38;;;2.45;84.82
46638;BME280;32365;46.938;7.390;2023-02-13T10:01:29;97156.59;;;2.45;84.80
46638;BME280;32365;46.938;7.390;2023-02-13T10:04:16;97146.38;;;2.55;85.18
46638;BME280;32365;46.938;7.390;2023-02-13T10:06:54;97147.84;;;2.68;82.92
46638;BME280;32365;46.938;7.390;2023-02-13T10:09:31;97140.88;;;2.80;84.58
46638;BME280;32365;46.938;7.390;2023-02-13T10:12:14;97139.38;;;2.57;85.11
46638;BME280;32365;46.938;7.390;2023-02-13T10:14:51;97146.53;;;2.93;84.46
46638;BME280;32365;46.938;7.390;2023-02-13T10:17:22;97145.75;;;2.12;86.73
46638;BME280;32365;46.938;7.390;2023-02-13T10:19:54;97147.44;;;2.43;86.09
46638;BME280;32365;46.938;7.390;2023-02-13T10:22:27;97137.72;;;3.25;84.90
46638;BME280;32365;46.938;7.390;2023-02-13T10:24:59;97137.66;;;2.87;82.74
46638;BME280;32365;46.938;7.390;2023-02-13T10:27:32;97137.09;;;2.84;85.56
46638;BME280;32365;46.938;7.390;2023-02-13T10:30:02;97141.91;;;3.16;85.62
46638;BME280;32365;46.938;7.390;2023-02-13T10:32:37;97142.13;;;3.52;81.78
46638;BME280;32365;46.938;7.390;2023-02-13T10:35:17;97141.00;;;4.03;81.84
46638;BME280;32365;46.938;7.390;2023-02-13T10:37:44;97137.47;;;3.76;82.39
46638;BME280;32365;46.938;7.390;2023-02-13T10:40:17;97137.31;;;3.77;81.00
46638;BME280;32365;46.938;7.390;2023-02-13T10:42:45;97139.88;;;3.39;82.78
46638;BME280;32365;46.938;7.390;2023-02-13T10:45:24;97137.06;;;4.08;81.64
46638;BME280;32365;46.938;7.390;2023-02-13T10:48:03;97136.31;;;4.62;79.22
46638;BME280;32365;46.938;7.390;2023-02-13T10:50:39;97137.41;;;4.59;76.20
46638;BME280;32365;46.938;7.390;2023-02-13T10:53:13;97125.22;;;3.97;80.05
46638;BME280;32365;46.938;7.390;2023-02-13T10:56:09;97119.91;;;4.37;80.36
46638;BME280;32365;46.938;7.390;2023-02-13T10:58:53;97113.34;;;6.10;76.91
46638;BME280;32365;46.938;7.390;2023-02-13T11:01:30;97116.44;;;8.34;64.62
46638;BME280;32365;46.938;7.390;2023-02-13T11:04:06;97120.63;;;8.04;63.65
46638;BME280;32365;46.938;7.390;2023-02-13T11:06:34;97116.50;;;8.57;62.34
46638;BME280;32365;46.938;7.390;2023-02-13T11:09:04;97114.00;;;9.11;59.74
46638;BME280;32365;46.938;7.390;2023-02-13T11:11:34;97104.50;;;9.86;56.93
46638;BME280;32365;46.938;7.390;2023-02-13T11:14:07;97106.16;;;9.94;55.04
46638;BME280;32365;46.938;7.390;2023-02-13T11:16:55;97102.34;;;10.26;55.47
46638;BME280;32365;46.938;7.390;2023-02-13T11:19:30;97103.16;;;11.77;51.44
46638;BME280;32365;46.938;7.390;2023-02-13T11:22:02;97099.47;;;13.09;48.18
46638;BME280;32365;46.938;7.390;2023-02-13T11:24:30;97104.78;;;14.27;43.43
46638;BME280;32365;46.938;7.390;2023-02-13T11:27:00;97103.22;;;15.15;42.78
46638;BME280;32365;46.938;7.390;2023-02-13T11:29:30;97094.53;;;15.21;41.96
46638;BME280;32365;46.938;7.390;2023-02-13T11:32:03;97092.28;;;15.25;40.30
46638;BME280;32365;46.938;7.390;2023-02-13T11:34:31;97091.97;;;14.57;43.76
46638;BME280;32365;46.938;7.390;2023-02-13T11:37:14;97082.03;;;13.36;46.17
46638;BME280;32365;46.938;7.390;2023-02-13T11:39:43;97083.09;;;14.72;43.68
46638;BME280;32365;46.938;7.390;2023-02-13T11:42:13;97082.69;;;15.44;41.38
46638;BME280;32365;46.938;7.390;2023-02-13T11:44:41;97081.88;;;14.04;44.55
46638;BME280;32365;46.938;7.390;2023-02-13T11:47:09;97071.34;;;15.13;41.96
46638;BME280;32365;46.938;7.390;2023-02-13T11:49:37;97077.06;;;16.45;38.75
46638;BME280;32365;46.938;7.390;2023-02-13T11:52:06;97077.78;;;16.22;39.30
46638;BME280;32365;46.938;7.390;2023-02-13T11:54:34;97081.19;;;15.11;41.73
46638;BME280;32365;46.938;7.390;2023-02-13T11:57:03;97072.09;;;12.86;47.04
46638;BME280;32365;46.938;7.390;2023-02-13T11:59:45;97076.25;;;12.54;49.16
46638;BME280;32365;46.938;7.390;2023-02-13T12:02:15;97069.19;;;16.03;40.83
46638;BME280;32365;46.938;7.390;2023-02-13T12:04:42;97063.94;;;16.22;39.81
46638;BME280;32365;46.938;7.390;2023-02-13T12:07:14;97070.34;;;15.14;40.59
46638;BME280;32365;46.938;7.390;2023-02-13T12:09:44;97058.44;;;14.36;42.98
46638;BME280;32365;46.938;7.390;2023-02-13T12:12:18;97061.41;;;16.57;37.91
46638;BME280;32365;46.938;7.390;2023-02-13T12:14:49;97055.59;;;16.98;36.97
46638;BME280;32365;46.938;7.390;2023-02-13T12:17:18;97059.47;;;15.36;40.14
46638;BME280;32365;46.938;7.390;2023-02-13T12:19:47;97048.22;;;14.66;41.53
46638;BME280;32365;46.938;7.390;2023-02-13T12:22:25;97052.66;;;14.91;41.68
46638;BME280;32365;46.938;7.390;2023-02-13T12:27:57;97047.81;;;15.57;38.25
46638;BME280;32365;46.938;7.390;2023-02-13T12:33:35;97033.28;;;17.19;36.43
46638;BME280;32365;46.938;7.390;2023-02-13T12:36:09;97032.72;;;15.59;38.46
46638;BME280;32365;46.938;7.390;2023-02-13T12:38:46;97030.97;;;17.87;35.59
46638;BME280;32365;46.938;7.390;2023-02-13T12:41:18;97031.66;;;16.16;37.53
46638;BME280;32365;46.938;7.390;2023-02-13T12:46:51;97019.84;;;17.27;35.09
46638;BME280;32365;46.938;7.390;2023-02-13T12:49:35;97015.44;;;15.95;36.59
46638;BME280;32365;46.938;7.390;2023-02-13T12:52:17;97012.31;;;16.83;35.30
46638;BME280;32365;46.938;7.390;2023-02-13T12:54:57;97003.44;;;16.72;35.92
46638;BME280;32365;46.938;7.390;2023-02-13T12:57:41;97013.19;;;16.29;38.14
46638;BME280;32365;46.938;7.390;2023-02-13T13:00:20;97012.59;;;16.27;38.15
46638;BME280;32365;46.938;7.390;2023-02-13T13:03:18;97005.69;;;15.35;39.26
46638;BME280;32365;46.938;7.390;2023-02-13T13:09:26;97002.13;;;14.67;42.38
46638;BME280;32365;46.938;7.390;2023-02-13T13:12:14;96990.34;;;13.61;43.56
46638;BME280;32365;46.938;7.390;2023-02-13T13:14:47;96991.81;;;15.72;39.32
46638;BME280;32365;46.938;7.390;2023-02-13T13:17:25;96987.94;;;16.23;36.08
46638;BME280;32365;46.938;7.390;2023-02-13T13:20:02;96990.47;;;13.80;41.14
46638;BME280;32365;46.938;7.390;2023-02-13T13:22:43;96985.59;;;14.98;39.56
46638;BME280;32365;46.938;7.390;2023-02-13T13:25:17;96980.03;;;15.99;37.98
46638;BME280;32365;46.938;7.390;2023-02-13T13:27:49;96986.72;;;16.73;36.35
46638;BME280;32365;46.938;7.390;2023-02-13T13:30:19;96975.25;;;16.39;35.44
46638;BME280;32365;46.938;7.390;2023-02-13T13:32:53;96977.97;;;16.56;35.71
46638;BME280;32365;46.938;7.390;2023-02-13T13:35:22;96977.09;;;14.08;40.44
46638;BME280;32365;46.938;7.390;2023-02-13T13:37:54;96970.31;;;12.09;44.96
46638;BME280;32365;46.938;7.390;2023-02-13T13:40:33;96967.88;;;13.67;41.88
46638;BME280;32365;46.938;7.390;2023-02-13T13:43:10;96967.13;;;16.16;35.47
46638;BME280;32365;46.938;7.390;2023-02-13T13:45:44;96970.63;;;15.80;35.61
46638;BME280;32365;46.938;7.390;2023-02-13T13:51:15;96969.69;;;13.07;40.77
46638;BME280;32365;46.938;7.390;2023-02-13T13:54:16;96966.88;;;13.68;41.23
46638;BME280;32365;46.938;7.390;2023-02-13T13:57:05;96958.28;;;13.15;40.45
46638;BME280;32365;46.938;7.390;2023-02-13T13:59:55;96957.91;;;12.98;42.80
46638;BME280;32365;46.938;7.390;2023-02-13T14:02:44;96955.88;;;11.73;44.37
46638;BME280;32365;46.938;7.390;2023-02-13T14:05:32;96954.63;;;13.82;39.54
46638;BME280;32365;46.938;7.390;2023-02-13T14:08:02;96956.06;;;13.12;40.11
46638;BME280;32365;46.938;7.390;2023-02-13T14:13:34;96958.63;;;11.71;43.45
46638;BME280;32365;46.938;7.390;2023-02-13T14:16:02;96960.00;;;11.67;44.40
46638;BME280;32365;46.938;7.390;2023-02-13T14:18:29;96961.13;;;10.17;46.12
46638;BME280;32365;46.938;7.390;2023-02-13T14:20:58;96961.31;;;10.15;47.96
46638;BME280;32365;46.938;7.390;2023-02-13T14:23:48;96954.81;;;10.48;45.79
46638;BME280;32365;46.938;7.390;2023-02-13T14:26:32;96949.59;;;9.24;48.08
46638;BME280;32365;46.938;7.390;2023-02-13T14:32:13;96954.69;;;10.13;47.66
46638;BME280;32365;46.938;7.390;2023-02-13T14:34:41;96954.41;;;9.79;48.05
46638;BME280;32365;46.938;7.390;2023-02-13T14:37:19;96945.16;;;8.88;50.64
46638;BME280;32365;46.938;7.390;2023-02-13T14:43:01;96941.22;;;9.07;53.43
46638;BME280;32365;46.938;7.390;2023-02-13T14:45:34;96942.56;;;8.58;54.50
46638;BME280;32365;46.938;7.390;2023-02-13T14:48:11;96949.97;;;8.38;56.01
46638;BME280;32365;46.938;7.390;2023-02-13T14:50:44;96944.91;;;8.83;55.89
46638;BME280;32365;46.938;7.390;2023-02-13T14:53:20;96940.31;;;8.55;56.08
46638;BME280;32365;46.938;7.390;2023-02-13T14:55:55;96936.28;;;8.14;57.71
46638;BME280;32365;46.938;7.390;2023-02-13T14:58:26;96934.19;;;8.56;56.54
46638;BME280;32365;46.938;7.390;2023-02-13T15:00:54;96926.97;;;8.67;56.98
46638;BME280;32365;46.938;7.390;2023-02-13T15:03:26;96924.03;;;9.15;56.33
46638;BME280;32365;46.938;7.390;2023-02-13T15:05:55;96922.88;;;9.54;55.34
46638;BME280;32365;46.938;7.390;2023-02-13T15:08:25;96922.97;;;9.82;53.90
46638;BME280;32365;46.938;7.390;2023-02-13T15:10:54;96918.66;;;10.61;52.04
46638;BME280;32365;46.938;7.390;2023-02-13T15:13:22;96911.75;;;11.11;50.37
46638;BME280;32365;46.938;7.390;2023-02-13T15:15:54;96917.41;;;10.51;52.16
46638;BME280;32365;46.938;7.390;2023-02-13T15:18:25;96910.63;;;10.50;52.79
46638;BME280;32365;46.938;7.390;2023-02-13T15:20:54;96914.41;;;10.82;51.45
46638;BME280;32365;46.938;7.390;2023-02-13T15:23:23;96927.63;;;10.09;53.16
46638;BME280;32365;46.938;7.390;2023-02-13T15:25:56;96910.09;;;9.67;54.33
46638;BME280;32365;46.938;7.390;2023-02-13T15:28:23;96909.25;;;9.82;53.97
46638;BME280;32365;46.938;7.390;2023-02-13T15:30:57;96914.34;;;10.40;52.95
46638;BME280;32365;46.938;7.390;2023-02-13T15:33:26;96911.00;;;10.25;52.82
46638;BME280;32365;46.938;7.390;2023-02-13T15:35:57;96905.88;;;10.31;53.16
46638;BME280;32365;46.938;7.390;2023-02-13T15:38:25;96911.25;;;10.87;51.76
46638;BME280;32365;46.938;7.390;2023-02-13T15:40:55;96908.78;;;10.43;51.81
46638;BME280;32365;46.938;7.390;2023-02-13T15:43:29;96909.25;;;9.82;54.25
46638;BME280;32365;46.938;7.390;2023-02-13T15:46:01;96909.44;;;10.52;52.76
46638;BME280;32365;46.938;7.390;2023-02-13T15:48:30;96913.19;;;10.21;53.58
46638;BME280;32365;46.938;7.390;2023-02-13T15:50:58;96905.03;;;10.24;52.81
46638;BME280;32365;46.938;7.390;2023-02-13T15:53:25;96908.75;;;9.93;54.06
46638;BME280;32365;46.938;7.390;2023-02-13T15:55:57;96903.94;;;9.47;54.45
46638;BME280;32365;46.938;7.390;2023-02-13T15:58:28;96913.53;;;8.86;56.63
46638;BME280;32365;46.938;7.390;2023-02-13T16:00:55;96913.19;;;8.74;57.13
46638;BME280;32365;46.938;7.390;2023-02-13T16:03:24;96912.13;;;8.69;57.88
46638;BME280;32365;46.938;7.390;2023-02-13T16:05:52;96904.78;;;8.04;59.95
46638;BME280;32365;46.938;7.390;2023-02-13T16:08:34;96902.66;;;8.08;60.89
46638;BME280;32365;46.938;7.390;2023-02-13T16:11:27;96908.19;;;7.73;61.77
46638;BME280;32365;46.938;7.390;2023-02-13T16:14:04;96905.66;;;7.42;63.24
46638;BME280;32365;46.938;7.390;2023-02-13T16:16:35;96909.75;;;7.28;64.36
46638;BME280;32365;46.938;7.390;2023-02-13T16:19:21;96902.59;;;7.15;65.09
46638;BME280;32365;46.938;7.390;2023-02-13T16:21:50;96903.13;;;6.93;65.61
46638;BME280;32365;46.938;7.390;2023-02-13T16:24:18;96903.31;;;6.84;66.49
46638;BME280;32365;46.938;7.390;2023-02-13T16:26:46;96897.59;;;6.65;67.35
46638;BME280;32365;46.938;7.390;2023-02-13T16:29:20;96902.13;;;6.46;68.45
46638;BME280;32365;46.938;7.390;2023-02-13T16:31:48;96906.97;;;6.33;70.24
46638;BME280;32365;46.938;7.390;2023-02-13T16:34:24;96911.00;;;6.19;71.55
46638;BME280;32365;46.938;7.390;2023-02-13T16:36:50;96901.22;;;6.14;72.28
46638;BME280;32365;46.938;7.390;2023-02-13T16:39:19;96904.25;;;6.01;72.89
46638;BME280;32365;46.938;7.390;2023-02-13T16:41:46;96915.31;;;5.85;73.46
46638;BME280;32365;46.938;7.390;2023-02-13T16:44:27;96904.69;;;5.72;74.26
46638;BME280;32365;46.938;7.390;2023-02-13T16:46:56;96913.53;;;5.69;75.23
46638;BME280;32365;46.938;7.390;2023-02-13T16:49:25;96914.66;;;5.67;75.36
46638;BME280;32365;46.938;7.390;2023-02-13T16:52:05;96913.50;;;5.61;75.62
46638;BME280;32365;46.938;7.390;2023-02-13T16:54:34;96912.19;;;5.41;76.13
46638;BME280;32365;46.938;7.390;2023-02-13T16:57:05;96913.75;;;5.25;77.76
46638;BME280;32365;46.938;7.390;2023-02-13T16:59:51;96909.69;;;5.14;78.16
46638;BME280;32365;46.938;7.390;2023-02-13T17:02:21;96917.19;;;5.07;78.76
46638;BME280;32365;46.938;7.390;2023-02-13T17:04:51;96923.25;;;4.98;78.71
46638;BME280;32365;46.938;7.390;2023-02-13T17:07:20;96920.28;;;4.76;79.75
46638;BME280;32365;46.938;7.390;2023-02-13T17:09:52;96922.16;;;4.66;79.91
46638;BME280;32365;46.938;7.390;2023-02-13T17:12:19;96924.00;;;4.56;80.07
46638;BME280;32365;46.938;7.390;2023-02-13T17:14:45;96924.56;;;4.41;80.36
46638;BME280;32365;46.938;7.390;2023-02-13T17:17:13;96929.63;;;4.33;80.91
46638;BME280;32365;46.938;7.390;2023-02-13T17:19:41;96930.84;;;4.21;81.33
46638;BME280;32365;46.938;7.390;2023-02-13T17:22:17;96941.16;;;4.11;82.16
46638;BME280;32365;46.938;7.390;2023-02-13T17:24:44;96943.22;;;3.89;82.33
46638;BME280;32365;46.938;7.390;2023-02-13T17:27:11;96941.28;;;3.73;83.29
46638;BME280;32365;46.938;7.390;2023-02-13T17:29:38;96946.72;;;3.70;83.68
46638;BME280;32365;46.938;7.390;2023-02-13T17:32:05;96952.50;;;3.54;83.87
46638;BME280;32365;46.938;7.390;2023-02-13T17:34:31;96953.47;;;3.43;84.21
46638;BME280;32365;46.938;7.390;2023-02-13T17:36:57;96948.75;;;3.48;83.98
46638;BME280;32365;46.938;7.390;2023-02-13T17:39:25;96959.97;;;3.37;84.26
46638;BME280;32365;46.938;7.390;2023-02-13T17:41:52;96955.91;;;3.17;84.56
46638;BME280;32365;46.938;7.390;2023-02-13T17:44:18;96956.22;;;3.04;85.07
46638;BME280;32365;46.938;7.390;2023-02-13T17:46:44;96962.59;;;2.90;85.18
46638;BME280;32365;46.938;7.390;2023-02-13T17:49:11;96967.06;;;2.88;85.47
46638;BME280;32365;46.938;7.390;2023-02-13T17:51:38;96963.69;;;2.87;85.40
46638;BME280;32365;46.938;7.390;2023-02-13T17:54:08;96963.44;;;2.81;85.67
46638;BME280;32365;46.938;7.390;2023-02-13T17:56:37;96962.78;;;2.79;85.99
46638;BME280;32365;46.938;7.390;2023-02-13T17:59:04;96971.56;;;2.66;86.38
46638;BME280;32365;46.938;7.390;2023-02-13T18:01:30;96968.59;;;2.61;86.85
46638;BME280;32365;46.938;7.390;2023-02-13T18:03:57;96968.88;;;2.58;86.87
46638;BME280;32365;46.938;7.390;2023-02-13T18:06:23;96971.56;;;2.56;87.23
46638;BME280;32365;46.938;7.390;2023-02-13T18:08:50;96967.56;;;2.44;87.14
46638;BME280;32365;46.938;7.390;2023-02-13T18:11:16;96966.22;;;2.30;87.41
46638;BME280;32365;46.938;7.390;2023-02-13T18:13:44;96970.00;;;2.36;87.88
46638;BME280;32365;46.938;7.390;2023-02-13T18:16:13;96969.56;;;2.30;88.06
46638;BME280;32365;46.938;7.390;2023-02-13T18:18:39;96968.25;;;2.17;88.35
46638;BME280;32365;46.938;7.390;2023-02-13T18:21:06;96967.31;;;2.18;89.21
46638;BME280;32365;46.938;7.390;2023-02-13T18:23:32;96968.41;;;2.15;88.78
46638;BME280;32365;46.938;7.390;2023-02-13T18:26:03;96967.31;;;2.18;89.03
46638;BME280;32365;46.938;7.390;2023-02-13T18:28:30;96960.06;;;2.13;88.97
46638;BME280;32365;46.938;7.390;2023-02-13T18:30:58;96964.06;;;2.06;89.71
46638;BME280;32365;46.938;7.390;2023-02-13T18:33:25;96966.78;;;2.04;89.60
46638;BME280;32365;46.938;7.390;2023-02-13T18:35:57;96965.69;;;2.07;89.81
46638;BME280;32365;46.938;7.390;2023-02-13T18:38:24;96966.47;;;1.88;89.36
46638;BME280;32365;46.938;7.390;2023-02-13T18:40:50;96969.19;;;1.86;90.19
46638;BME280;32365;46.938;7.390;2023-02-13T18:43:17;96969.16;;;1.66;90.64
46638;BME280;32365;46.938;7.390;2023-02-13T18:45:43;96967.81;;;1.62;90.43
46638;BME280;32365;46.938;7.390;2023-02-13T18:48:11;96966.34;;;1.60;90.89
46638;BME280;32365;46.938;7.390;2023-02-13T18:50:38;96963.72;;;1.40;90.58
46638;BME280;32365;46.938;7.390;2023-02-13T18:53:05;96976.25;;;1.53;91.70
46638;BME280;32365;46.938;7.390;2023-02-13T18:55:32;96970.06;;;1.56;91.75
46638;BME280;32365;46.938;7.390;2023-02-13T18:57:58;96965.09;;;1.54;91.46
46638;BME280;32365;46.938;7.390;2023-02-13T19:00:25;96967.53;;;1.56;91.80
46638;BME280;32365;46.938;7.390;2023-02-13T19:02:52;96966.72;;;1.55;91.75
46638;BME280;32365;46.938;7.390;2023-02-13T19:05:20;96982.69;;;1.47;91.92
46638;BME280;32365;46.938;7.390;2023-02-13T19:07:46;96971.81;;;1.45;91.51
46638;BME280;32365;46.938;7.390;2023-02-13T19:10:13;96975.09;;;1.26;91.67
46638;BME280;32365;46.938;7.390;2023-02-13T19:12:40;96974.00;;;1.19;91.89
46638;BME280;32365;46.938;7.390;2023-02-13T19:15:08;96977.41;;;1.29;91.90
46638;BME280;32365;46.938;7.390;2023-02-13T19:17:36;96977.16;;;1.32;91.66
46638;BME280;32365;46.938;7.390;2023-02-13T19:20:03;96970.13;;;1.25;92.71
46638;BME280;32365;46.938;7.390;2023-02-13T19:22:32;96978.13;;;1.10;92.24
46638;BME280;32365;46.938;7.390;2023-02-13T19:24:58;96978.91;;;1.01;92.40
46638;BME280;32365;46.938;7.390;2023-02-13T19:27:25;96972.56;;;0.95;93.01
46638;BME280;32365;46.938;7.390;2023-02-13T19:29:52;96979.47;;;1.04;93.53
46638;BME280;32365;46.938;7.390;2023-02-13T19:32:18;96975.66;;;0.99;93.30
46638;BME280;32365;46.938;7.390;2023-02-13T19:34:45;96967.63;;;1.03;93.67
46638;BME280;32365;46.938;7.390;2023-02-13T19:37:11;96974.75;;;1.00;93.76
46638;BME280;32365;46.938;7.390;2023-02-13T19:39:39;96975.47;;;0.90;93.45
46638;BME280;32365;46.938;7.390;2023-02-13T19:42:06;96983.28;;;0.89;93.75
46638;BME280;32365;46.938;7.390;2023-02-13T19:44:32;96979.31;;;0.75;92.96
46638;BME280;32365;46.938;7.390;2023-02-13T19:46:58;96984.78;;;0.49;92.52
46638;BME280;32365;46.938;7.390;2023-02-13T19:49:25;96983.78;;;0.40;93.62
46638;BME280;32365;46.938;7.390;2023-02-13T19:51:51;96981.75;;;0.34;94.49
46638;BME280;32365;46.938;7.390;2023-02-13T19:54:18;96986.84;;;0.34;94.69
46638;BME280;32365;46.938;7.390;2023-02-13T19:56:46;96983.38;;;0.35;95.40
